Time;durP1;ratioP1;P1;durP2;ratioP2;P2;SDS_P1;SDS_P2;PMS_P1;PMS_P2;Temp;Humidity;BMP_temperature;BMP_pressure;BME280_temperature;BME280_humidity;BME280_pressure;Samples;Min_cycle;Max_cycle;Signal;HPM_P1;HPM_P2
2022/01/04 00:01:38;;;;;;;1.05;0.77;;;;;;;6.93;100.00;97372.19;4088687;28;20047;-72
2022/01/04 00:03:40;;;;;;;1.30;0.70;;;;;;;6.89;100.00;97368.63;4088780;28;20468;-73
2022/01/04 00:05:41;;;;;;;0.70;0.70;;;;;;;6.88;100.00;97369.00;4088262;28;20043;-73
2022/01/04 00:07:41;;;;;;;1.27;0.95;;;;;;;6.93;100.00;97371.41;4088018;28;20113;-73
2022/01/04 00:09:43;;;;;;;1.95;1.00;;;;;;;6.90;100.00;97361.94;4090758;28;20039;-72
2022/01/04 00:13:20;;;;;;;0.70;0.70;;;;;;;6.92;100.00;97359.59;4088972;28;20509;-72
2022/01/04 00:14:07;;;;;;;0.95;0.80;;;;;;;6.97;100.00;97363.97;4093106;28;20419;-72
2022/01/04 00:16:08;;;;;;;1.73;0.70;;;;;;;6.93;99.94;97361.19;4088591;28;20051;-72
2022/01/04 00:18:09;;;;;;;0.70;0.70;;;;;;;7.00;99.71;97354.94;4086314;28;20489;-72
2022/01/04 00:20:11;;;;;;;1.90;0.80;;;;;;;6.90;99.94;97347.41;4089083;28;20062;-72
2022/01/04 00:22:11;;;;;;;0.90;0.75;;;;;;;6.92;100.00;97345.84;4088598;28;20290;-72
2022/01/04 00:24:12;;;;;;;2.13;0.70;;;;;;;6.89;100.00;97343.88;4087543;28;20066;-72
2022/01/04 00:26:12;;;;;;;1.02;1.00;;;;;;;6.84;100.00;97335.97;4088797;28;20035;-73
2022/01/04 00:28:13;;;;;;;1.25;0.77;;;;;;;6.82;100.00;97332.81;4088255;28;20084;-73
2022/01/04 00:30:13;;;;;;;1.02;0.70;;;;;;;6.76;100.00;97332.38;4088421;28;20039;-73
2022/01/04 00:32:14;;;;;;;0.70;0.70;;;;;;;6.77;100.00;97330.41;4087515;28;20039;-73
2022/01/04 00:34:14;;;;;;;1.23;0.77;;;;;;;6.72;100.00;97323.31;4088711;28;20426;-72
2022/01/04 00:36:14;;;;;;;2.22;0.75;;;;;;;6.78;100.00;97315.50;4090372;28;20039;-72
2022/01/04 00:38:16;;;;;;;0.98;0.88;;;;;;;6.76;100.00;97312.34;4087762;28;20031;-73
2022/01/04 00:40:16;;;;;;;0.75;0.70;;;;;;;6.70;100.00;97320.19;4088139;28;20059;-73
2022/01/04 00:42:16;;;;;;;2.17;0.80;;;;;;;6.74;100.00;97320.97;4090353;28;20042;-73
2022/01/04 00:44:17;;;;;;;1.73;0.70;;;;;;;6.72;100.00;97311.53;4087282;28;20100;-72
2022/01/04 00:46:17;;;;;;;0.80;0.68;;;;;;;6.69;100.00;97318.56;4088397;28;20142;-72
2022/01/04 00:50:18;;;;;;;2.47;0.80;;;;;;;6.70;100.00;97306.44;4088151;28;20031;-73
2022/01/04 00:52:19;;;;;;;1.02;0.60;;;;;;;6.70;100.00;97317.44;4091879;28;20038;-72
2022/01/04 00:54:20;;;;;;;0.88;0.60;;;;;;;6.66;100.00;97311.09;4088178;28;20479;-73
2022/01/04 00:56:21;;;;;;;0.73;0.70;;;;;;;6.65;100.00;97309.53;4088060;28;20116;-73
2022/01/04 00:58:21;;;;;;;3.53;0.70;;;;;;;6.60;100.00;97298.88;4087277;28;20454;-73
2022/01/04 01:00:22;;;;;;;1.02;0.73;;;;;;;6.63;100.00;97289.09;4088801;28;20471;-73
2022/01/04 01:02:22;;;;;;;1.27;1.13;;;;;;;6.59;100.00;97296.50;4088443;28;20074;-72
2022/01/04 01:04:23;;;;;;;1.52;0.50;;;;;;;6.58;100.00;97281.19;4101380;28;20043;-73
2022/01/04 01:06:24;;;;;;;0.65;0.60;;;;;;;6.55;100.00;97277.25;4094677;28;20051;-72
2022/01/04 01:08:24;;;;;;;1.50;0.80;;;;;;;6.54;100.00;97264.69;4088963;28;20162;-72
2022/01/04 01:12:32;;;;;;;0.60;0.60;;;;;;;6.50;100.00;97255.59;4090567;28;20050;-72
2022/01/04 01:14:32;;;;;;;0.70;0.70;;;;;;;6.48;100.00;97249.72;4088345;28;20047;-72
2022/01/04 01:16:33;;;;;;;1.02;0.63;;;;;;;6.48;100.00;97249.72;4087079;28;20043;-72
2022/01/04 01:18:35;;;;;;;0.60;0.60;;;;;;;6.45;100.00;97247.72;4087768;28;20052;-73
2022/01/04 01:20:35;;;;;;;2.33;0.70;;;;;;;6.42;100.00;97237.50;4088856;28;20217;-72
2022/01/04 01:22:37;;;;;;;1.08;0.70;;;;;;;6.41;100.00;97233.16;4088021;28;20415;-72
2022/01/04 01:24:37;;;;;;;0.60;0.50;;;;;;;6.44;100.00;97232.41;4091513;28;20323;-72
2022/01/04 01:26:38;;;;;;;0.85;0.55;;;;;;;6.43;100.00;97237.09;4098732;28;20093;-73
2022/01/04 01:28:38;;;;;;;1.60;0.70;;;;;;;6.42;100.00;97237.50;4094495;28;20047;-73
2022/01/04 01:30:41;;;;;;;0.60;0.60;;;;;;;6.41;100.00;97241.41;4089066;28;20047;-73
2022/01/04 01:32:41;;;;;;;0.63;0.60;;;;;;;6.41;100.00;97239.44;4088728;28;20086;-73
2022/01/04 01:34:42;;;;;;;0.65;0.65;;;;;;;6.42;100.00;97240.25;4092024;28;20510;-73
2022/01/04 01:36:42;;;;;;;0.60;0.60;;;;;;;6.40;100.00;97234.34;4088354;28;20055;-73
2022/01/04 01:38:43;;;;;;;1.05;0.80;;;;;;;6.41;100.00;97230.41;4087372;28;20044;-73
2022/01/04 01:40:43;;;;;;;1.10;0.60;;;;;;;6.42;100.00;97230.03;4088205;28;20765;-73
2022/01/04 01:42:44;;;;;;;0.60;0.60;;;;;;;6.38;100.00;97217.47;4093935;28;20062;-73
2022/01/04 01:44:44;;;;;;;0.80;0.60;;;;;;;6.39;100.00;97217.06;4086605;28;20051;-72
2022/01/04 01:46:44;;;;;;;0.95;0.93;;;;;;;6.39;100.00;97211.56;4087410;28;20455;-72
2022/01/04 01:48:45;;;;;;;0.50;0.50;;;;;;;6.38;100.00;97209.22;4088805;28;20357;-72
2022/01/04 01:50:45;;;;;;;0.60;0.60;;;;;;;6.36;100.00;97201.31;4088299;28;20616;-72
2022/01/04 01:52:49;;;;;;;1.10;0.50;;;;;;;6.36;100.00;97201.31;4086873;28;20051;-72
2022/01/04 01:54:49;;;;;;;2.50;0.63;;;;;;;6.36;100.00;97195.03;4087521;28;20047;-72
2022/01/04 01:56:50;;;;;;;1.70;0.60;;;;;;;6.35;100.00;97199.75;4087095;28;20135;-72
2022/01/04 01:58:51;;;;;;;1.85;0.60;;;;;;;6.30;100.00;97194.63;4090918;28;20042;-72
2022/01/04 02:00:51;;;;;;;0.65;0.65;;;;;;;6.33;100.00;97193.06;4087396;28;20419;-72
2022/01/04 02:02:52;;;;;;;1.67;0.60;;;;;;;6.30;100.00;97191.88;4087646;28;20052;-72
2022/01/04 02:04:53;;;;;;;0.93;0.68;;;;;;;6.27;100.00;97186.34;4087610;28;20047;-72
2022/01/04 02:06:53;;;;;;;1.52;0.70;;;;;;;6.25;100.00;97178.50;4090489;28;20292;-72
2022/01/04 02:08:53;;;;;;;0.85;0.80;;;;;;;6.25;100.00;97178.50;4088881;28;20454;-72
2022/01/04 02:10:56;;;;;;;0.50;0.50;;;;;;;6.24;100.00;97163.19;4090654;28;20445;-72
2022/01/04 02:12:57;;;;;;;0.90;0.80;;;;;;;6.26;100.00;97160.06;4089878;28;20051;-72
2022/01/04 02:14:58;;;;;;;0.60;0.60;;;;;;;6.21;100.00;97155.72;4096747;28;20100;-72
2022/01/04 02:16:58;;;;;;;1.55;0.63;;;;;;;6.17;100.00;97152.94;4088877;28;20047;-72
2022/01/04 02:19:03;;;;;;;0.50;0.50;;;;;;;6.19;100.00;97152.53;4089990;28;20101;-72
2022/01/04 02:21:04;;;;;;;0.63;0.60;;;;;;;6.16;100.00;97151.34;4090608;28;20047;-72
2022/01/04 02:23:04;;;;;;;1.08;0.80;;;;;;;6.15;100.00;97154.50;4091935;28;20090;-72
2022/01/04 02:25:05;;;;;;;0.57;0.57;;;;;;;6.19;100.00;97138.81;4094047;28;20055;-72
2022/01/04 02:27:06;;;;;;;0.68;0.68;;;;;;;6.18;100.00;97131.75;4089522;28;20043;-72
2022/01/04 02:29:07;;;;;;;0.70;0.70;;;;;;;6.18;100.00;97126.25;4090078;28;20464;-72
2022/01/04 02:31:08;;;;;;;0.98;0.60;;;;;;;6.16;100.00;97125.84;4088889;28;20322;-72
2022/01/04 02:33:08;;;;;;;1.67;0.90;;;;;;;6.17;100.00;97124.69;4089575;28;20137;-72
2022/01/04 02:35:09;;;;;;;1.83;0.60;;;;;;;6.12;100.00;97116.78;4090022;28;20092;-72
2022/01/04 02:37:09;;;;;;;0.60;0.50;;;;;;;6.09;100.00;97114.81;4094409;28;20058;-72
2022/01/04 02:39:10;;;;;;;0.70;0.70;;;;;;;6.04;100.00;97106.94;4089134;28;20062;-72
2022/01/04 02:41:11;;;;;;;1.02;0.70;;;;;;;6.04;100.00;97110.50;4089955;28;20078;-72
2022/01/04 02:43:11;;;;;;;0.60;0.60;;;;;;;6.06;100.00;97096.38;4090031;28;20101;-72
2022/01/04 02:45:12;;;;;;;0.60;0.60;;;;;;;6.08;100.00;97086.56;4088972;28;20043;-72
2022/01/04 02:47:14;;;;;;;0.60;0.60;;;;;;;6.14;100.00;97089.75;4091186;28;20051;-72
2022/01/04 02:49:15;;;;;;;0.60;0.60;;;;;;;6.16;100.00;97088.19;4089577;28;20104;-72
2022/01/04 02:51:18;;;;;;;1.08;0.70;;;;;;;6.15;100.00;97083.09;4090981;28;20581;-72
2022/01/04 02:53:19;;;;;;;0.60;0.60;;;;;;;6.18;100.00;97069.38;4089502;28;20126;-72
2022/01/04 02:55:20;;;;;;;1.05;0.70;;;;;;;6.16;100.00;97074.47;4090005;28;20097;-72
2022/01/04 02:57:20;;;;;;;0.60;0.60;;;;;;;6.17;100.00;97070.53;4089823;28;20415;-72
2022/01/04 02:59:21;;;;;;;0.60;0.60;;;;;;;6.18;100.00;97063.88;4089724;28;20052;-72
2022/01/04 03:01:21;;;;;;;0.50;0.50;;;;;;;6.18;100.00;97052.88;4089865;28;20082;-72
2022/01/04 03:03:21;;;;;;;0.70;0.63;;;;;;;6.17;100.00;97059.56;4089214;28;20082;-72
2022/01/04 03:05:22;;;;;;;0.90;0.70;;;;;;;6.14;100.00;97065.81;4092922;28;20051;-72
2022/01/04 03:07:22;;;;;;;0.60;0.60;;;;;;;6.11;100.00;97052.06;4089146;28;20082;-72
2022/01/04 03:09:23;;;;;;;1.50;0.80;;;;;;;6.08;100.00;97061.88;4096195;28;20317;-72
2022/01/04 03:11:24;;;;;;;0.73;0.65;;;;;;;6.06;100.00;97055.19;4091127;28;20059;-72
2022/01/04 03:13:24;;;;;;;0.70;0.70;;;;;;;6.07;100.00;97043.03;4159766;28;20298;-72
2022/01/04 03:15:24;;;;;;;2.38;0.88;;;;;;;6.06;100.00;97039.50;4089795;28;20046;-72
2022/01/04 03:17:25;;;;;;;1.05;0.90;;;;;;;6.06;100.00;97041.47;4088701;28;20055;-72
2022/01/04 03:19:25;;;;;;;4.03;0.95;;;;;;;6.05;100.00;97037.13;4088691;28;20043;-72
2022/01/04 03:21:25;;;;;;;1.17;0.90;;;;;;;6.04;100.00;97036.34;4090672;28;20062;-72
2022/01/04 03:23:26;;;;;;;2.78;1.50;;;;;;;6.01;100.00;97039.84;4088734;28;20686;-72
2022/01/04 03:25:27;;;;;;;4.05;1.80;;;;;;;5.98;100.00;97040.63;4089512;28;20596;-72
2022/01/04 03:27:28;;;;;;;4.20;1.55;;;;;;;5.94;100.00;97028.81;4089540;28;20039;-72
2022/01/04 03:29:29;;;;;;;3.80;1.85;;;;;;;5.95;100.00;97024.91;4091393;28;20086;-72
2022/01/04 03:31:30;;;;;;;1.88;1.10;;;;;;;5.98;100.00;97015.13;4089580;28;20112;-72
2022/01/04 03:33:30;;;;;;;2.65;1.00;;;;;;;5.98;100.00;97007.69;4092507;28;20101;-72
2022/01/04 03:35:30;;;;;;;2.40;1.08;;;;;;;5.98;100.00;97010.41;4089411;28;20144;-72
2022/01/04 03:37:31;;;;;;;1.23;1.13;;;;;;;6.00;100.00;97010.03;4088847;28;20047;-72
2022/01/04 03:39:31;;;;;;;2.72;1.00;;;;;;;5.98;100.00;97002.19;4090253;28;20047;-72
2022/01/04 03:41:37;;;;;;;2.03;1.00;;;;;;;5.94;100.00;97001.38;4134719;28;20048;-72
2022/01/04 03:43:38;;;;;;;1.42;0.88;;;;;;;5.90;100.00;96989.56;4090549;28;20527;-72
2022/01/04 03:45:38;;;;;;;1.30;0.90;;;;;;;5.89;100.00;96985.25;4088203;28;20055;-72
2022/01/04 03:47:38;;;;;;;3.50;1.20;;;;;;;5.86;100.00;96981.28;4101616;28;20163;-72
2022/01/04 03:49:39;;;;;;;1.88;1.00;;;;;;;5.90;100.00;96982.13;4095096;28;20149;-72
2022/01/04 03:51:39;;;;;;;1.25;0.98;;;;;;;5.85;100.00;96976.19;4091031;28;20081;-72
2022/01/04 03:53:40;;;;;;;1.73;1.00;;;;;;;5.90;100.00;96978.59;4089646;28;20546;-72
2022/01/04 03:55:40;;;;;;;1.17;1.08;;;;;;;5.91;100.00;96971.94;4088829;28;20039;-72
2022/01/04 03:57:40;;;;;;;2.17;1.20;;;;;;;5.89;100.00;96960.53;4087608;28;20141;-72
2022/01/04 03:59:41;;;;;;;2.88;1.52;;;;;;;5.91;100.00;96975.47;4090940;28;20461;-72
2022/01/04 04:01:42;;;;;;;2.20;1.42;;;;;;;5.93;100.00;96957.84;4092438;28;20071;-72
2022/01/04 04:03:42;;;;;;;2.00;1.42;;;;;;;5.90;100.00;96957.44;4088641;28;20369;-72
2022/01/04 04:05:43;;;;;;;3.60;1.52;;;;;;;5.85;100.00;96949.53;4088023;28;20039;-72
2022/01/04 04:07:43;;;;;;;3.20;1.45;;;;;;;5.88;100.00;96951.53;4090946;28;20049;-72
2022/01/04 04:09:44;;;;;;;1.90;1.33;;;;;;;5.91;100.00;96955.47;4092194;28;20047;-72
2022/01/04 04:11:44;;;;;;;2.25;1.35;;;;;;;5.88;100.00;96940.53;4090135;28;20051;-72
2022/01/04 04:13:44;;;;;;;3.10;1.38;;;;;;;5.86;100.00;96939.31;4092102;28;20402;-72
2022/01/04 04:15:45;;;;;;;3.45;1.10;;;;;;;5.83;100.00;96940.91;4089443;28;20598;-72
2022/01/04 04:17:46;;;;;;;1.70;1.05;;;;;;;5.84;100.00;96920.50;4089430;28;20043;-72
2022/01/04 04:19:46;;;;;;;1.67;1.15;;;;;;;5.85;100.00;96922.06;4088181;28;20081;-72
2022/01/04 04:21:47;;;;;;;2.10;1.42;;;;;;;5.83;100.00;96916.19;4088214;28;20051;-72
2022/01/04 04:23:47;;;;;;;10.07;4.68;;;;;;;5.84;100.00;96916.97;4089295;28;20050;-72
2022/01/04 04:25:47;;;;;;;13.90;7.20;;;;;;;5.77;100.00;96912.22;4088838;28;20499;-72
2022/01/04 04:27:48;;;;;;;18.52;8.20;;;;;;;5.75;100.00;96908.31;4094302;28;20066;-72
2022/01/04 04:29:48;;;;;;;15.68;7.72;;;;;;;5.73;100.00;96907.91;4088148;28;20526;-72
2022/01/04 04:31:49;;;;;;;12.30;6.28;;;;;;;5.72;100.00;96906.34;4087924;28;20395;-72
2022/01/04 04:33:49;;;;;;;10.38;3.92;;;;;;;5.70;100.00;96901.22;4087545;28;20495;-72
2022/01/04 04:35:49;;;;;;;5.75;3.20;;;;;;;5.70;100.00;96897.69;4088160;28;20147;-72
2022/01/04 04:37:50;;;;;;;3.47;2.30;;;;;;;5.67;100.00;96890.22;4088901;28;20051;-72
2022/01/04 04:39:50;;;;;;;3.25;1.95;;;;;;;5.64;100.00;96895.31;4087822;28;20047;-72
2022/01/04 04:41:52;;;;;;;5.78;2.35;;;;;;;5.62;100.00;96885.88;4089141;28;20047;-72
2022/01/04 04:43:54;;;;;;;7.80;3.58;;;;;;;5.60;100.00;96882.75;4087778;28;20047;-72
2022/01/04 04:45:54;;;;;;;8.18;3.95;;;;;;;5.62;100.00;96881.19;4087739;28;20059;-72
2022/01/04 04:47:55;;;;;;;6.18;3.10;;;;;;;5.61;100.00;96876.09;4088065;28;20404;-72
2022/01/04 04:49:56;;;;;;;6.10;3.17;;;;;;;5.61;100.00;96879.63;4087811;28;20051;-72
2022/01/04 04:51:59;;;;;;;7.85;3.40;;;;;;;5.59;100.00;96865.50;4088299;28;20101;-72
2022/01/04 04:53:59;;;;;;;8.85;3.60;;;;;;;5.62;100.00;96869.41;4088602;28;20051;-72
2022/01/04 04:55:59;;;;;;;5.82;3.53;;;;;;;5.66;100.00;96874.94;4088226;28;20046;-72
2022/01/04 04:58:00;;;;;;;5.72;3.75;;;;;;;5.68;100.00;96869.84;4087305;28;20054;-72
2022/01/04 05:00:00;;;;;;;5.65;3.40;;;;;;;5.68;100.00;96853.38;4088427;28;20043;-72
2022/01/04 05:02:01;;;;;;;5.90;3.47;;;;;;;5.69;100.00;96853.00;4087685;28;20051;-71
2022/01/04 05:04:02;;;;;;;5.28;3.38;;;;;;;5.70;100.00;96835.34;4090172;28;20054;-72
2022/01/04 05:06:03;;;;;;;5.75;3.85;;;;;;;5.72;100.00;96835.00;4088487;28;20035;-72
2022/01/04 05:08:03;;;;;;;5.18;3.80;;;;;;;5.71;100.00;96841.63;4091036;28;20039;-72
2022/01/04 05:10:06;;;;;;;6.05;3.65;;;;;;;5.72;100.00;96835.00;4093968;28;20035;-72
2022/01/04 05:12:07;;;;;;;6.45;4.40;;;;;;;5.73;100.00;96836.56;4099109;28;20040;-72
2022/01/04 05:14:07;;;;;;;4.88;3.80;;;;;;;5.72;100.00;96824.81;4092277;28;20516;-72
2022/01/04 05:16:08;;;;;;;6.80;4.35;;;;;;;5.73;100.00;96828.34;4089519;28;20231;-72
2022/01/04 05:18:09;;;;;;;6.47;4.75;;;;;;;5.70;100.00;96818.09;4087072;28;20451;-72
2022/01/04 05:20:09;;;;;;;6.15;4.22;;;;;;;5.66;100.00;96812.63;4088231;28;20031;-72
2022/01/04 05:22:10;;;;;;;6.93;4.28;;;;;;;5.62;100.00;96820.81;4087560;28;20037;-72
2022/01/04 05:24:11;;;;;;;10.82;4.60;;;;;;;5.58;100.00;96813.75;4152483;28;20513;-72
2022/01/04 05:26:12;;;;;;;7.13;4.68;;;;;;;5.57;100.00;96810.22;4087747;28;20050;-71
2022/01/04 05:28:12;;;;;;;8.32;4.95;;;;;;;5.53;100.00;96795.69;4089255;28;20553;-72
2022/01/04 05:30:13;;;;;;;7.85;5.10;;;;;;;5.57;100.00;96810.22;4088852;28;20305;-72
2022/01/04 05:32:14;;;;;;;10.18;5.10;;;;;;;5.54;100.00;96801.97;4103406;28;20041;-72
2022/01/04 05:34:14;;;;;;;9.25;5.38;;;;;;;5.54;100.00;96808.25;4089550;28;20058;-72
2022/01/04 05:36:14;;;;;;;7.55;5.22;;;;;;;5.51;100.00;96805.50;4101876;28;20530;-72
2022/01/04 05:38:15;;;;;;;8.90;5.20;;;;;;;5.46;100.00;96790.22;4092284;28;20039;-72
2022/01/04 05:40:15;;;;;;;13.10;8.20;;;;;;;5.48;100.00;96787.84;4090410;28;20066;-72
2022/01/04 05:42:16;;;;;;;14.57;8.95;;;;;;;5.54;100.00;96780.03;4094380;28;20511;-72
2022/01/04 05:44:16;;;;;;;10.45;6.00;;;;;;;5.57;100.00;96782.00;4094442;28;20394;-72
2022/01/04 05:46:16;;;;;;;8.77;5.45;;;;;;;5.56;100.00;96773.00;4092227;28;20043;-72
2022/01/04 05:48:20;;;;;;;9.10;4.53;;;;;;;5.56;100.00;96773.00;4090781;28;20364;-72
2022/01/04 05:50:20;;;;;;;9.23;6.10;;;;;;;5.56;100.00;96769.47;4089579;28;20070;-72
2022/01/04 05:52:21;;;;;;;11.70;7.35;;;;;;;5.58;100.00;96764.38;4090823;28;20074;-72
2022/01/04 05:54:21;;;;;;;15.65;9.85;;;;;;;5.57;100.00;96758.09;4092246;28;20058;-72
2022/01/04 05:56:22;;;;;;;16.17;10.95;;;;;;;5.64;100.00;96757.34;4098349;28;20498;-72
2022/01/04 05:58:22;;;;;;;16.50;9.65;;;;;;;5.66;100.00;96752.25;4092310;28;20065;-72
2022/01/04 06:00:23;;;;;;;8.73;6.38;;;;;;;5.74;100.00;96761.28;4093378;28;20486;-72
2022/01/04 06:02:23;;;;;;;10.10;6.15;;;;;;;5.73;100.00;96741.31;4094889;28;20486;-72
2022/01/04 06:04:24;;;;;;;8.02;5.32;;;;;;;5.71;100.00;96748.34;4091541;28;20339;-72
2022/01/04 06:06:24;;;;;;;9.30;6.18;;;;;;;5.63;100.00;96740.09;4095401;28;20043;-72
2022/01/04 06:08:30;;;;;;;15.00;7.97;;;;;;;5.60;100.00;96743.59;4103224;28;20050;-72
2022/01/04 06:10:37;;;;;;;10.65;7.38;;;;;;;5.56;100.00;96737.34;4097257;28;20050;-72
2022/01/04 06:15:14;;;;;;;8.40;6.00;;;;;;;5.54;100.00;96727.91;4092638;28;20483;-72
2022/01/04 06:17:10;;;;;;;7.95;5.72;;;;;;;5.59;100.00;96722.06;4094835;28;20052;-72
2022/01/04 06:19:10;;;;;;;7.88;5.70;;;;;;;5.61;100.00;96716.94;4090548;28;20512;-72
2022/01/04 06:21:13;;;;;;;8.15;6.20;;;;;;;5.66;100.00;96722.06;4090286;28;20250;-72
2022/01/04 06:23:14;;;;;;;6.82;5.65;;;;;;;5.68;100.00;96716.19;4091148;28;20130;-72
2022/01/04 06:25:17;;;;;;;7.85;5.85;;;;;;;5.65;100.00;96709.53;4089643;28;20150;-72
2022/01/04 06:27:18;;;;;;;6.85;5.57;;;;;;;5.64;100.00;96719.72;4090019;28;20094;-72
2022/01/04 06:29:22;;;;;;;7.55;5.00;;;;;;;5.61;100.00;96725.97;4094129;28;20043;-72
2022/01/04 06:31:25;;;;;;;8.93;5.32;;;;;;;5.56;100.00;96711.88;4095010;28;20046;-72
2022/01/04 06:33:25;;;;;;;7.18;4.97;;;;;;;5.57;100.00;96707.94;4091646;28;20469;-72
2022/01/04 06:35:27;;;;;;;7.18;4.93;;;;;;;5.52;100.00;96711.84;4090421;28;20067;-72
2022/01/04 06:37:27;;;;;;;7.28;5.07;;;;;;;5.52;100.00;96708.31;4092040;28;20157;-72
2022/01/04 06:39:28;;;;;;;8.05;5.00;;;;;;;5.54;100.00;96694.97;4090556;28;20067;-72
2022/01/04 06:41:28;;;;;;;6.60;5.00;;;;;;;5.55;100.00;96696.59;4091286;28;20059;-72
2022/01/04 06:43:29;;;;;;;7.30;4.65;;;;;;;5.54;100.00;96701.25;4091977;28;20470;-72
2022/01/04 06:45:29;;;;;;;8.52;5.25;;;;;;;5.50;100.00;96695.00;4091203;28;20050;-72
2022/01/04 06:47:30;;;;;;;5.75;4.70;;;;;;;5.49;100.00;96690.69;4088723;28;20466;-72
2022/01/04 06:49:31;;;;;;;7.43;4.55;;;;;;;5.52;100.00;96692.63;4091827;28;20055;-72
2022/01/04 06:51:31;;;;;;;7.47;3.90;;;;;;;5.51;100.00;96676.56;4090174;28;20043;-72
2022/01/04 06:53:32;;;;;;;6.07;3.50;;;;;;;5.52;100.00;96672.66;4091615;28;20059;-72
2022/01/04 06:55:32;;;;;;;4.50;3.28;;;;;;;5.53;100.00;96672.25;4091765;28;20171;-72
2022/01/04 06:57:33;;;;;;;4.45;3.42;;;;;;;5.51;100.00;96669.13;4090339;28;20050;-72
2022/01/04 06:59:33;;;;;;;5.60;3.42;;;;;;;5.49;100.00;96663.25;4095630;28;20043;-72
2022/01/04 07:01:36;;;;;;;5.80;3.28;;;;;;;5.50;100.00;96670.31;4096490;28;20200;-72
2022/01/04 07:03:36;;;;;;;9.27;4.53;;;;;;;5.49;100.00;96665.22;4095911;28;20446;-72
2022/01/04 07:05:37;;;;;;;4.95;3.00;;;;;;;5.50;100.00;96658.53;4088368;28;20299;-72
2022/01/04 07:07:37;;;;;;;4.28;2.78;;;;;;;5.48;100.00;96658.94;4090443;28;20073;-72
2022/01/04 07:09:37;;;;;;;4.88;3.00;;;;;;;5.50;100.00;96658.53;4090962;28;20048;-72
2022/01/04 07:11:38;;;;;;;4.47;2.50;;;;;;;5.49;100.00;96674.22;4091543;28;20065;-72
2022/01/04 07:13:38;;;;;;;4.85;3.10;;;;;;;5.48;100.00;96663.66;4093695;28;20050;-72
2022/01/04 07:15:39;;;;;;;5.93;2.97;;;;;;;5.50;100.00;96658.53;4091662;28;20039;-72
2022/01/04 07:17:41;;;;;;;6.80;2.67;;;;;;;5.47;100.00;96665.59;4107129;28;20047;-72
2022/01/04 07:19:43;;;;;;;7.13;3.38;;;;;;;5.49;100.00;96673.44;4091325;28;20113;-72
2022/01/04 07:21:44;;;;;;;4.28;3.00;;;;;;;5.46;100.00;96666.78;4087997;28;20589;-72
2022/01/04 07:23:46;;;;;;;7.10;3.00;;;;;;;5.45;100.00;96658.91;4088469;28;20047;-72
2022/01/04 07:25:47;;;;;;;5.30;3.03;;;;;;;5.49;100.00;96670.69;4088289;28;20133;-72
2022/01/04 07:27:47;;;;;;;5.82;4.00;;;;;;;5.48;100.00;96664.44;4087651;28;20091;-72
2022/01/04 07:29:47;;;;;;;10.60;5.50;;;;;;;5.45;100.00;96661.66;4090053;28;20051;-72
2022/01/04 07:31:48;;;;;;;7.43;5.13;;;;;;;5.48;100.00;96666.38;4087977;28;20146;-72
2022/01/04 07:33:49;;;;;;;8.98;6.18;;;;;;;5.51;100.00;96671.09;4089038;28;20301;-72
2022/01/04 07:35:49;;;;;;;9.13;5.70;;;;;;;5.48;100.00;96660.91;4051500;28;1147985;-72
2022/01/04 07:37:49;;;;;;;7.90;5.10;;;;;;;5.50;100.00;96658.53;4089015;28;20856;-72
2022/01/04 07:39:51;;;;;;;7.80;4.60;;;;;;;5.47;100.00;96662.88;4088916;28;20055;-72
2022/01/04 07:41:52;;;;;;;8.45;5.75;;;;;;;5.47;100.00;96665.59;4088675;28;20538;-72
2022/01/04 07:43:53;;;;;;;11.60;6.57;;;;;;;5.47;100.00;96662.06;4094456;28;20043;-72
2022/01/04 07:45:53;;;;;;;11.35;6.90;;;;;;;5.47;100.00;96665.59;4156812;28;20040;-72
2022/01/04 07:47:54;;;;;;;10.38;6.30;;;;;;;5.42;100.00;96676.16;4088821;28;20051;-72
2022/01/04 07:49:54;;;;;;;14.10;7.97;;;;;;;5.42;100.00;96679.69;4089936;28;20047;-72
2022/01/04 07:51:54;;;;;;;11.70;6.70;;;;;;;5.39;100.00;96672.25;4089097;28;20044;-71
2022/01/04 07:53:55;;;;;;;9.07;5.78;;;;;;;5.40;100.00;96667.53;4087969;28;20066;-71
2022/01/04 07:55:55;;;;;;;10.98;5.68;;;;;;;5.40;100.00;96668.31;4089796;28;20059;-71
2022/01/04 07:57:56;;;;;;;7.68;5.13;;;;;;;5.40;100.00;96662.84;4088339;28;20051;-71
2022/01/04 07:59:56;;;;;;;7.95;5.10;;;;;;;5.40;100.00;96665.59;4088168;28;20054;-71
2022/01/04 08:01:57;;;;;;;9.57;5.05;;;;;;;5.40;100.00;96673.03;4089573;28;20477;-71
2022/01/04 08:04:00;;;;;;;9.23;5.53;;;;;;;5.40;100.00;96665.59;4092579;28;20137;-72
2022/01/04 08:06:00;;;;;;;9.52;5.78;;;;;;;5.43;100.00;96653.81;4089834;28;20077;-71
2022/01/04 08:08:00;;;;;;;9.70;5.35;;;;;;;5.45;100.00;96651.47;4087757;28;20055;-71
2022/01/04 08:10:01;;;;;;;8.77;5.18;;;;;;;5.46;100.00;96655.81;4091093;28;20055;-73
2022/01/04 08:12:01;;;;;;;9.50;5.30;;;;;;;5.45;100.00;96654.22;4088495;28;20435;-73
2022/01/04 08:14:02;;;;;;;9.63;4.68;;;;;;;5.47;100.00;96654.63;4089186;28;20031;-71
2022/01/04 08:16:03;;;;;;;6.65;4.35;;;;;;;5.49;100.00;96659.72;4093947;28;20038;-73
2022/01/04 08:18:03;;;;;;;7.82;4.88;;;;;;;5.49;100.00;96656.97;4090437;28;20039;-73
2022/01/04 08:20:05;;;;;;;8.05;4.50;;;;;;;5.44;100.00;96649.91;4091193;28;20118;-71
2022/01/04 08:22:05;;;;;;;7.80;4.35;;;;;;;5.45;100.00;96640.50;4091282;28;20319;-71
2022/01/04 08:24:06;;;;;;;7.57;4.43;;;;;;;5.44;100.00;96638.94;4088467;28;20027;-73
2022/01/04 08:26:06;;;;;;;8.55;4.70;;;;;;;5.47;100.00;96653.84;4088763;28;20471;-73
2022/01/04 08:28:07;;;;;;;8.38;4.97;;;;;;;5.46;100.00;96633.88;4087629;28;20104;-73
2022/01/04 08:30:10;;;;;;;9.40;5.28;;;;;;;5.52;100.00;96647.97;4089699;28;20621;-73
2022/01/04 08:32:10;;;;;;;13.73;7.05;;;;;;;5.50;100.00;96631.13;4092243;28;20031;-73
2022/01/04 08:34:11;;;;;;;12.68;6.90;;;;;;;5.50;100.00;96645.63;4088713;28;20039;-74
2022/01/04 08:36:11;;;;;;;7.88;5.25;;;;;;;5.48;100.00;96634.25;4088020;28;20459;-74
2022/01/04 08:38:12;;;;;;;7.55;5.25;;;;;;;5.52;100.00;96637.00;4087849;28;20035;-73
2022/01/04 08:40:12;;;;;;;9.90;5.38;;;;;;;5.52;100.00;96631.50;4088970;28;20031;-73
2022/01/04 08:42:13;;;;;;;11.43;5.68;;;;;;;5.58;100.00;96628.00;4089221;28;20392;-73
2022/01/04 08:44:14;;;;;;;9.43;5.28;;;;;;;5.59;100.00;96621.31;4088781;28;20130;-73
2022/01/04 08:46:14;;;;;;;7.35;4.68;;;;;;;5.60;100.00;96614.66;4087916;28;20114;-73
2022/01/04 08:48:15;;;;;;;7.53;5.47;;;;;;;5.63;100.00;96630.38;4087431;28;20137;-73
2022/01/04 08:50:15;;;;;;;8.73;5.95;;;;;;;5.64;100.00;96620.94;4088982;28;20429;-73
2022/01/04 08:52:16;;;;;;;7.72;5.28;;;;;;;5.64;100.00;96614.69;4087921;28;20050;-73
2022/01/04 08:54:17;;;;;;;10.00;6.70;;;;;;;5.62;100.00;96608.78;4088968;28;20788;-73
2022/01/04 08:56:18;;;;;;;10.07;6.30;;;;;;;5.65;100.00;96605.28;4088625;28;20031;-73
2022/01/04 08:58:19;;;;;;;10.02;5.85;;;;;;;5.67;100.00;96618.59;4088095;28;20330;-73
2022/01/04 09:00:19;;;;;;;10.48;5.88;;;;;;;5.69;100.00;96613.50;4086912;28;20783;-73
2022/01/04 09:02:21;;;;;;;8.05;4.63;;;;;;;5.69;100.00;96606.03;4088903;28;20046;-73
2022/01/04 09:04:22;;;;;;;13.07;7.18;;;;;;;5.72;100.00;96607.25;4088021;28;20073;-73
2022/01/04 09:06:22;;;;;;;17.25;10.43;;;;;;;5.74;100.00;96608.41;4087579;28;20039;-73
2022/01/04 09:08:22;;;;;;;26.45;16.88;;;;;;;5.71;100.00;96600.97;4087583;28;20043;-73
2022/01/04 09:10:23;;;;;;;20.67;13.55;;;;;;;5.73;100.00;96598.63;4094235;28;20065;-73
2022/01/04 09:12:28;;;;;;;22.15;14.25;;;;;;;5.74;100.00;96591.16;4089153;28;20384;-73
2022/01/04 09:14:41;;;;;;;14.15;8.27;;;;;;;5.77;100.00;96593.13;4092545;28;20054;-73
2022/01/04 09:19:01;;;;;;;7.43;5.13;;;;;;;5.77;100.00;96590.38;4090914;28;20070;-73
2022/01/04 09:21:01;;;;;;;10.55;6.53;;;;;;;5.80;100.00;96589.59;4092760;28;20054;-73
2022/01/04 09:23:02;;;;;;;10.85;6.85;;;;;;;5.78;100.00;96589.19;4089223;28;20055;-73
2022/01/04 09:25:04;;;;;;;8.00;6.53;;;;;;;5.79;100.00;96588.00;4089226;28;20570;-73
2022/01/04 09:27:05;;;;;;;8.70;6.10;;;;;;;5.80;100.00;96590.38;4090581;28;20074;-73
2022/01/04 09:29:06;;;;;;;7.57;5.35;;;;;;;5.83;100.00;96588.81;4088294;28;20687;-73
2022/01/04 09:31:06;;;;;;;8.65;4.97;;;;;;;5.84;100.00;96595.88;4088225;28;20054;-73
2022/01/04 09:33:07;;;;;;;12.93;6.85;;;;;;;5.83;100.00;96586.84;4088292;28;20047;-73
2022/01/04 09:35:08;;;;;;;5.38;4.03;;;;;;;5.79;100.00;96593.50;4087094;28;20048;-73
2022/01/04 09:37:10;;;;;;;9.55;5.40;;;;;;;5.77;100.00;96590.38;4092290;28;20536;-73